Marblehead, Massachusetts
Current Conditions -  °F | °C
As of 10:53 PM on Wednesday 17 Dec 2014 (Local Time) from KBVY Reporting Station
Overcast Overcast  
Wind Chill: 35°   Ceiling: 7000
Heat Index: 42°   Visibility: 10mi
Dew Point: 34°   Wind: 13mph
Humidity: 73%   Direction: 270°W
Pressure: 29.7"   Gusts: 21mph
Location:  42.5°N, 70.86°W
Report Text: KBVY 180353Z AUTO 27011G18KT 10SM OVC070 06/01 A2970 RMK AO2 SLP054 T00560011
Loading
Personal Weather Stations






























Interactive Weather Map New forecast layout! Learn more

10-Day Weather Forecast

Advertisements
Track Severe Weather on mobile